sensor_id;sensor_type;location;lat;lon;timestamp;P1;durP1;ratioP1;P2;durP2;ratioP2
12433;SDS011;6281;49.038;8.372;2022-07-10T00:00:07;3.77;;;3.40;;
12433;SDS011;6281;49.038;8.372;2022-07-10T00:02:37;4.77;;;4.13;;
12433;SDS011;6281;49.038;8.372;2022-07-10T00:05:05;4.53;;;3.47;;
12433;SDS011;6281;49.038;8.372;2022-07-10T00:07:32;5.67;;;3.90;;
12433;SDS011;6281;49.038;8.372;2022-07-10T00:09:59;5.37;;;3.73;;
12433;SDS011;6281;49.038;8.372;2022-07-10T00:12:26;4.00;;;3.70;;
12433;SDS011;6281;49.038;8.372;2022-07-10T00:14:53;4.30;;;4.00;;
12433;SDS011;6281;49.038;8.372;2022-07-10T00:17:20;4.40;;;4.00;;
12433;SDS011;6281;49.038;8.372;2022-07-10T00:19:49;4.43;;;3.80;;
12433;SDS011;6281;49.038;8.372;2022-07-10T00:22:15;5.53;;;3.77;;
12433;SDS011;6281;49.038;8.372;2022-07-10T00:24:42;4.63;;;4.23;;
12433;SDS011;6281;49.038;8.372;2022-07-10T00:27:09;4.30;;;3.90;;
12433;SDS011;6281;49.038;8.372;2022-07-10T00:29:36;4.40;;;4.00;;
12433;SDS011;6281;49.038;8.372;2022-07-10T00:32:04;3.80;;;3.50;;
12433;SDS011;6281;49.038;8.372;2022-07-10T00:34:31;4.33;;;3.93;;
12433;SDS011;6281;49.038;8.372;2022-07-10T00:37:00;4.17;;;3.77;;
12433;SDS011;6281;49.038;8.372;2022-07-10T00:39:27;4.87;;;4.43;;
12433;SDS011;6281;49.038;8.372;2022-07-10T00:41:54;5.07;;;4.57;;
12433;SDS011;6281;49.038;8.372;2022-07-10T00:44:21;6.83;;;4.10;;
12433;SDS011;6281;49.038;8.372;2022-07-10T00:46:48;10.03;;;4.80;;
12433;SDS011;6281;49.038;8.372;2022-07-10T00:49:15;6.77;;;4.60;;
12433;SDS011;6281;49.038;8.372;2022-07-10T00:51:42;9.80;;;5.30;;
12433;SDS011;6281;49.038;8.372;2022-07-10T00:54:11;6.83;;;4.60;;
12433;SDS011;6281;49.038;8.372;2022-07-10T00:56:38;12.23;;;5.37;;
12433;SDS011;6281;49.038;8.372;2022-07-10T00:59:05;6.63;;;4.53;;
12433;SDS011;6281;49.038;8.372;2022-07-10T01:01:32;4.20;;;3.80;;
12433;SDS011;6281;49.038;8.372;2022-07-10T01:04:00;4.73;;;3.90;;
12433;SDS011;6281;49.038;8.372;2022-07-10T01:06:27;4.63;;;3.67;;
12433;SDS011;6281;49.038;8.372;2022-07-10T01:08:54;4.00;;;3.60;;
12433;SDS011;6281;49.038;8.372;2022-07-10T01:11:22;4.87;;;3.80;;
12433;SDS011;6281;49.038;8.372;2022-07-10T01:13:49;6.93;;;3.63;;
12433;SDS011;6281;49.038;8.372;2022-07-10T01:16:17;5.80;;;3.67;;
12433;SDS011;6281;49.038;8.372;2022-07-10T01:18:44;3.63;;;3.33;;
12433;SDS011;6281;49.038;8.372;2022-07-10T01:21:24;3.57;;;3.03;;
12433;SDS011;6281;49.038;8.372;2022-07-10T01:23:52;4.07;;;3.50;;
12433;SDS011;6281;49.038;8.372;2022-07-10T01:26:19;4.33;;;3.10;;
12433;SDS011;6281;49.038;8.372;2022-07-10T01:28:47;4.70;;;3.60;;
12433;SDS011;6281;49.038;8.372;2022-07-10T01:31:15;3.47;;;3.17;;
12433;SDS011;6281;49.038;8.372;2022-07-10T01:33:43;3.57;;;2.70;;
12433;SDS011;6281;49.038;8.372;2022-07-10T01:36:10;4.50;;;2.70;;
12433;SDS011;6281;49.038;8.372;2022-07-10T01:38:39;3.97;;;2.87;;
12433;SDS011;6281;49.038;8.372;2022-07-10T01:41:06;2.80;;;2.40;;
12433;SDS011;6281;49.038;8.372;2022-07-10T01:43:34;4.57;;;2.70;;
12433;SDS011;6281;49.038;8.372;2022-07-10T01:46:01;3.03;;;2.60;;
12433;SDS011;6281;49.038;8.372;2022-07-10T01:48:29;2.80;;;2.60;;
12433;SDS011;6281;49.038;8.372;2022-07-10T01:50:56;3.80;;;2.90;;
12433;SDS011;6281;49.038;8.372;2022-07-10T01:53:23;3.37;;;2.50;;
12433;SDS011;6281;49.038;8.372;2022-07-10T01:55:52;2.87;;;2.57;;
12433;SDS011;6281;49.038;8.372;2022-07-10T01:58:19;4.30;;;2.70;;
12433;SDS011;6281;49.038;8.372;2022-07-10T02:00:46;3.40;;;2.50;;
12433;SDS011;6281;49.038;8.372;2022-07-10T02:03:13;4.13;;;2.40;;
12433;SDS011;6281;49.038;8.372;2022-07-10T02:05:57;4.90;;;2.43;;
12433;SDS011;6281;49.038;8.372;2022-07-10T02:08:24;6.33;;;2.57;;
12433;SDS011;6281;49.038;8.372;2022-07-10T02:10:53;5.93;;;2.30;;
12433;SDS011;6281;49.038;8.372;2022-07-10T02:13:20;5.07;;;2.30;;
12433;SDS011;6281;49.038;8.372;2022-07-10T02:15:49;2.93;;;2.10;;
12433;SDS011;6281;49.038;8.372;2022-07-10T02:18:16;4.37;;;2.10;;
12433;SDS011;6281;49.038;8.372;2022-07-10T02:20:43;3.20;;;2.20;;
12433;SDS011;6281;49.038;8.372;2022-07-10T02:23:10;3.93;;;2.17;;
12433;SDS011;6281;49.038;8.372;2022-07-10T02:25:37;2.50;;;2.30;;
12433;SDS011;6281;49.038;8.372;2022-07-10T02:28:07;3.87;;;2.60;;
12433;SDS011;6281;49.038;8.372;2022-07-10T02:30:35;7.60;;;2.40;;
12433;SDS011;6281;49.038;8.372;2022-07-10T02:33:02;3.27;;;2.17;;
12433;SDS011;6281;49.038;8.372;2022-07-10T02:35:29;4.73;;;2.30;;
12433;SDS011;6281;49.038;8.372;2022-07-10T02:37:56;2.87;;;2.10;;
12433;SDS011;6281;49.038;8.372;2022-07-10T02:40:23;3.83;;;1.97;;
12433;SDS011;6281;49.038;8.372;2022-07-10T02:42:50;4.13;;;2.10;;
12433;SDS011;6281;49.038;8.372;2022-07-10T02:45:18;4.67;;;2.13;;
12433;SDS011;6281;49.038;8.372;2022-07-10T02:47:45;4.27;;;2.20;;
12433;SDS011;6281;49.038;8.372;2022-07-10T02:50:12;4.43;;;1.80;;
12433;SDS011;6281;49.038;8.372;2022-07-10T02:52:40;2.70;;;2.20;;
12433;SDS011;6281;49.038;8.372;2022-07-10T02:55:07;5.07;;;2.10;;
12433;SDS011;6281;49.038;8.372;2022-07-10T02:57:36;5.67;;;2.20;;
12433;SDS011;6281;49.038;8.372;2022-07-10T03:00:04;4.30;;;2.23;;
12433;SDS011;6281;49.038;8.372;2022-07-10T03:05:01;3.20;;;2.40;;
12433;SDS011;6281;49.038;8.372;2022-07-10T03:07:28;3.73;;;1.90;;
12433;SDS011;6281;49.038;8.372;2022-07-10T03:09:55;4.00;;;2.47;;
12433;SDS011;6281;49.038;8.372;2022-07-10T03:12:22;4.53;;;2.23;;
12433;SDS011;6281;49.038;8.372;2022-07-10T03:14:49;3.60;;;1.83;;
12433;SDS011;6281;49.038;8.372;2022-07-10T03:17:16;5.43;;;2.20;;
12433;SDS011;6281;49.038;8.372;2022-07-10T03:19:45;4.13;;;2.23;;
12433;SDS011;6281;49.038;8.372;2022-07-10T03:22:12;3.67;;;1.83;;
12433;SDS011;6281;49.038;8.372;2022-07-10T03:24:38;3.97;;;2.00;;
12433;SDS011;6281;49.038;8.372;2022-07-10T03:27:06;3.60;;;1.80;;
12433;SDS011;6281;49.038;8.372;2022-07-10T03:29:33;3.07;;;1.83;;
12433;SDS011;6281;49.038;8.372;2022-07-10T03:32:00;5.77;;;1.87;;
12433;SDS011;6281;49.038;8.372;2022-07-10T03:34:27;5.37;;;1.97;;
12433;SDS011;6281;49.038;8.372;2022-07-10T03:36:55;2.47;;;1.70;;
12433;SDS011;6281;49.038;8.372;2022-07-10T03:39:22;5.40;;;2.10;;
12433;SDS011;6281;49.038;8.372;2022-07-10T03:41:49;5.33;;;2.30;;
12433;SDS011;6281;49.038;8.372;2022-07-10T03:44:16;2.53;;;1.70;;
12433;SDS011;6281;49.038;8.372;2022-07-10T03:46:43;4.20;;;1.70;;
12433;SDS011;6281;49.038;8.372;2022-07-10T03:49:10;5.40;;;2.03;;
12433;SDS011;6281;49.038;8.372;2022-07-10T03:51:37;2.67;;;1.77;;
12433;SDS011;6281;49.038;8.372;2022-07-10T03:54:05;4.43;;;1.70;;
12433;SDS011;6281;49.038;8.372;2022-07-10T03:56:32;4.77;;;1.90;;
12433;SDS011;6281;49.038;8.372;2022-07-10T03:59:16;5.53;;;1.90;;
12433;SDS011;6281;49.038;8.372;2022-07-10T04:01:43;4.10;;;1.83;;
12433;SDS011;6281;49.038;8.372;2022-07-10T04:04:10;3.53;;;2.17;;
12433;SDS011;6281;49.038;8.372;2022-07-10T04:06:37;4.03;;;1.90;;
12433;SDS011;6281;49.038;8.372;2022-07-10T04:09:05;4.23;;;1.90;;
12433;SDS011;6281;49.038;8.372;2022-07-10T04:11:32;4.50;;;1.77;;
12433;SDS011;6281;49.038;8.372;2022-07-10T04:13:59;4.13;;;1.60;;
12433;SDS011;6281;49.038;8.372;2022-07-10T04:16:26;3.43;;;1.70;;
12433;SDS011;6281;49.038;8.372;2022-07-10T04:18:53;4.67;;;2.00;;
12433;SDS011;6281;49.038;8.372;2022-07-10T04:21:20;3.70;;;2.43;;
12433;SDS011;6281;49.038;8.372;2022-07-10T04:23:47;3.77;;;1.87;;
12433;SDS011;6281;49.038;8.372;2022-07-10T04:26:15;3.07;;;1.70;;
12433;SDS011;6281;49.038;8.372;2022-07-10T04:28:43;3.80;;;1.90;;
12433;SDS011;6281;49.038;8.372;2022-07-10T04:31:09;5.97;;;1.80;;
12433;SDS011;6281;49.038;8.372;2022-07-10T04:33:36;4.80;;;1.90;;
12433;SDS011;6281;49.038;8.372;2022-07-10T04:36:04;4.73;;;1.73;;
12433;SDS011;6281;49.038;8.372;2022-07-10T04:38:31;3.97;;;2.00;;
12433;SDS011;6281;49.038;8.372;2022-07-10T04:40:59;2.60;;;2.20;;
12433;SDS011;6281;49.038;8.372;2022-07-10T04:43:27;4.37;;;1.70;;
12433;SDS011;6281;49.038;8.372;2022-07-10T04:45:55;2.83;;;1.60;;
12433;SDS011;6281;49.038;8.372;2022-07-10T04:48:22;3.63;;;1.80;;
12433;SDS011;6281;49.038;8.372;2022-07-10T04:50:49;3.80;;;1.87;;
12433;SDS011;6281;49.038;8.372;2022-07-10T04:53:16;4.10;;;2.00;;
12433;SDS011;6281;49.038;8.372;2022-07-10T04:55:43;3.13;;;2.07;;
12433;SDS011;6281;49.038;8.372;2022-07-10T04:58:10;5.00;;;1.93;;
12433;SDS011;6281;49.038;8.372;2022-07-10T05:00:38;3.97;;;2.03;;
12433;SDS011;6281;49.038;8.372;2022-07-10T05:03:05;5.37;;;2.33;;
12433;SDS011;6281;49.038;8.372;2022-07-10T05:05:32;5.67;;;1.70;;
12433;SDS011;6281;49.038;8.372;2022-07-10T05:07:59;3.17;;;1.73;;
12433;SDS011;6281;49.038;8.372;2022-07-10T05:10:26;4.03;;;1.97;;
12433;SDS011;6281;49.038;8.372;2022-07-10T05:12:53;3.67;;;1.90;;
12433;SDS011;6281;49.038;8.372;2022-07-10T05:15:21;3.47;;;1.87;;
12433;SDS011;6281;49.038;8.372;2022-07-10T05:17:49;3.13;;;1.80;;
12433;SDS011;6281;49.038;8.372;2022-07-10T05:20:16;4.47;;;1.80;;
12433;SDS011;6281;49.038;8.372;2022-07-10T05:22:43;2.60;;;1.57;;
12433;SDS011;6281;49.038;8.372;2022-07-10T05:25:10;2.67;;;1.90;;
12433;SDS011;6281;49.038;8.372;2022-07-10T05:27:37;3.87;;;1.70;;
12433;SDS011;6281;49.038;8.372;2022-07-10T05:30:05;6.90;;;2.30;;
12433;SDS011;6281;49.038;8.372;2022-07-10T05:32:32;4.97;;;1.87;;
12433;SDS011;6281;49.038;8.372;2022-07-10T05:35:00;3.20;;;1.57;;
12433;SDS011;6281;49.038;8.372;2022-07-10T05:37:27;3.63;;;1.93;;
12433;SDS011;6281;49.038;8.372;2022-07-10T05:39:54;3.60;;;1.43;;
12433;SDS011;6281;49.038;8.372;2022-07-10T05:42:21;3.20;;;1.80;;
12433;SDS011;6281;49.038;8.372;2022-07-10T05:44:48;4.03;;;1.70;;
12433;SDS011;6281;49.038;8.372;2022-07-10T05:47:15;5.67;;;2.30;;
12433;SDS011;6281;49.038;8.372;2022-07-10T05:49:42;2.33;;;1.63;;
12433;SDS011;6281;49.038;8.372;2022-07-10T05:52:11;3.70;;;1.73;;
12433;SDS011;6281;49.038;8.372;2022-07-10T05:54:38;5.93;;;2.10;;
12433;SDS011;6281;49.038;8.372;2022-07-10T05:57:05;8.53;;;1.80;;
12433;SDS011;6281;49.038;8.372;2022-07-10T05:59:32;2.97;;;1.63;;
12433;SDS011;6281;49.038;8.372;2022-07-10T06:02:00;4.53;;;2.00;;
12433;SDS011;6281;49.038;8.372;2022-07-10T06:04:27;3.50;;;1.80;;
12433;SDS011;6281;49.038;8.372;2022-07-10T06:06:54;2.03;;;1.70;;
12433;SDS011;6281;49.038;8.372;2022-07-10T06:09:22;2.77;;;1.63;;
12433;SDS011;6281;49.038;8.372;2022-07-10T06:11:49;2.93;;;2.00;;
12433;SDS011;6281;49.038;8.372;2022-07-10T06:14:16;7.23;;;2.40;;
12433;SDS011;6281;49.038;8.372;2022-07-10T06:16:43;2.77;;;1.50;;
12433;SDS011;6281;49.038;8.372;2022-07-10T06:19:10;6.23;;;1.70;;
12433;SDS011;6281;49.038;8.372;2022-07-10T06:21:37;4.77;;;1.93;;
12433;SDS011;6281;49.038;8.372;2022-07-10T06:24:04;4.70;;;1.80;;
12433;SDS011;6281;49.038;8.372;2022-07-10T06:26:33;3.00;;;1.70;;
12433;SDS011;6281;49.038;8.372;2022-07-10T06:29:00;3.53;;;1.93;;
12433;SDS011;6281;49.038;8.372;2022-07-10T06:31:27;3.27;;;1.77;;
12433;SDS011;6281;49.038;8.372;2022-07-10T06:33:54;3.03;;;1.70;;
12433;SDS011;6281;49.038;8.372;2022-07-10T06:36:21;5.53;;;1.67;;
12433;SDS011;6281;49.038;8.372;2022-07-10T06:38:48;5.37;;;1.77;;
12433;SDS011;6281;49.038;8.372;2022-07-10T06:41:15;3.90;;;1.70;;
12433;SDS011;6281;49.038;8.372;2022-07-10T06:43:43;3.33;;;1.50;;
12433;SDS011;6281;49.038;8.372;2022-07-10T06:46:10;3.97;;;1.70;;
12433;SDS011;6281;49.038;8.372;2022-07-10T06:48:37;8.07;;;2.20;;
12433;SDS011;6281;49.038;8.372;2022-07-10T06:51:05;5.97;;;1.80;;
12433;SDS011;6281;49.038;8.372;2022-07-10T06:53:33;5.10;;;2.20;;
12433;SDS011;6281;49.038;8.372;2022-07-10T06:56:00;4.13;;;1.97;;
12433;SDS011;6281;49.038;8.372;2022-07-10T06:58:27;4.17;;;1.70;;
12433;SDS011;6281;49.038;8.372;2022-07-10T07:00:55;3.87;;;2.10;;
12433;SDS011;6281;49.038;8.372;2022-07-10T07:03:22;5.00;;;1.20;;
12433;SDS011;6281;49.038;8.372;2022-07-10T07:05:49;3.23;;;1.83;;
12433;SDS011;6281;49.038;8.372;2022-07-10T07:08:16;6.10;;;1.83;;
12433;SDS011;6281;49.038;8.372;2022-07-10T07:10:43;4.07;;;1.60;;
12433;SDS011;6281;49.038;8.372;2022-07-10T07:13:10;2.70;;;1.50;;
12433;SDS011;6281;49.038;8.372;2022-07-10T07:15:37;4.03;;;1.60;;
12433;SDS011;6281;49.038;8.372;2022-07-10T07:18:13;3.37;;;1.50;;
12433;SDS011;6281;49.038;8.372;2022-07-10T07:20:41;4.70;;;1.63;;
12433;SDS011;6281;49.038;8.372;2022-07-10T07:23:26;3.33;;;1.50;;
12433;SDS011;6281;49.038;8.372;2022-07-10T07:25:53;1.83;;;1.67;;
12433;SDS011;6281;49.038;8.372;2022-07-10T07:28:20;2.63;;;1.40;;
12433;SDS011;6281;49.038;8.372;2022-07-10T07:30:48;2.43;;;1.43;;
12433;SDS011;6281;49.038;8.372;2022-07-10T07:33:17;3.33;;;1.43;;
12433;SDS011;6281;49.038;8.372;2022-07-10T07:35:44;4.57;;;1.70;;
12433;SDS011;6281;49.038;8.372;2022-07-10T07:38:11;4.07;;;1.57;;
12433;SDS011;6281;49.038;8.372;2022-07-10T07:40:38;2.70;;;1.37;;
12433;SDS011;6281;49.038;8.372;2022-07-10T07:43:05;4.43;;;1.50;;
12433;SDS011;6281;49.038;8.372;2022-07-10T07:45:32;2.93;;;1.23;;
12433;SDS011;6281;49.038;8.372;2022-07-10T07:47:59;2.20;;;1.27;;
12433;SDS011;6281;49.038;8.372;2022-07-10T07:50:29;2.90;;;1.20;;
12433;SDS011;6281;49.038;8.372;2022-07-10T07:52:58;3.43;;;1.40;;
12433;SDS011;6281;49.038;8.372;2022-07-10T07:55:25;2.87;;;1.30;;
12433;SDS011;6281;49.038;8.372;2022-07-10T07:57:53;7.00;;;1.37;;
12433;SDS011;6281;49.038;8.372;2022-07-10T08:00:22;3.73;;;1.37;;
12433;SDS011;6281;49.038;8.372;2022-07-10T08:02:50;2.40;;;1.50;;
12433;SDS011;6281;49.038;8.372;2022-07-10T08:05:19;3.33;;;1.40;;
12433;SDS011;6281;49.038;8.372;2022-07-10T08:07:48;4.07;;;1.10;;
12433;SDS011;6281;49.038;8.372;2022-07-10T08:10:19;4.17;;;1.33;;
12433;SDS011;6281;49.038;8.372;2022-07-10T08:12:47;2.40;;;1.17;;
12433;SDS011;6281;49.038;8.372;2022-07-10T08:15:15;2.33;;;1.30;;
12433;SDS011;6281;49.038;8.372;2022-07-10T08:17:43;4.60;;;1.30;;
12433;SDS011;6281;49.038;8.372;2022-07-10T08:20:13;2.77;;;1.27;;
12433;SDS011;6281;49.038;8.372;2022-07-10T08:22:41;3.00;;;1.20;;
12433;SDS011;6281;49.038;8.372;2022-07-10T08:25:10;3.30;;;1.57;;
12433;SDS011;6281;49.038;8.372;2022-07-10T08:27:37;4.03;;;1.17;;
12433;SDS011;6281;49.038;8.372;2022-07-10T08:30:04;2.30;;;1.23;;
12433;SDS011;6281;49.038;8.372;2022-07-10T08:32:33;2.27;;;1.10;;
12433;SDS011;6281;49.038;8.372;2022-07-10T08:35:01;2.67;;;1.00;;
12433;SDS011;6281;49.038;8.372;2022-07-10T08:37:28;2.73;;;1.20;;
12433;SDS011;6281;49.038;8.372;2022-07-10T08:39:55;3.77;;;1.10;;
12433;SDS011;6281;49.038;8.372;2022-07-10T08:42:23;3.33;;;1.13;;
12433;SDS011;6281;49.038;8.372;2022-07-10T08:44:51;4.07;;;1.30;;
12433;SDS011;6281;49.038;8.372;2022-07-10T08:47:20;3.77;;;1.20;;
12433;SDS011;6281;49.038;8.372;2022-07-10T08:49:50;2.83;;;1.10;;
12433;SDS011;6281;49.038;8.372;2022-07-10T08:52:23;2.17;;;1.03;;
12433;SDS011;6281;49.038;8.372;2022-07-10T08:54:52;2.73;;;0.90;;
12433;SDS011;6281;49.038;8.372;2022-07-10T08:57:20;2.37;;;1.03;;
12433;SDS011;6281;49.038;8.372;2022-07-10T08:59:52;2.27;;;0.80;;
12433;SDS011;6281;49.038;8.372;2022-07-10T09:02:19;2.37;;;1.00;;
12433;SDS011;6281;49.038;8.372;2022-07-10T09:04:46;1.87;;;0.90;;
12433;SDS011;6281;49.038;8.372;2022-07-10T09:07:13;2.73;;;0.90;;
12433;SDS011;6281;49.038;8.372;2022-07-10T09:09:53;2.80;;;1.00;;
12433;SDS011;6281;49.038;8.372;2022-07-10T09:12:21;3.00;;;0.90;;
12433;SDS011;6281;49.038;8.372;2022-07-10T09:14:50;3.17;;;0.87;;
12433;SDS011;6281;49.038;8.372;2022-07-10T09:17:17;1.47;;;0.70;;
12433;SDS011;6281;49.038;8.372;2022-07-10T09:19:44;2.73;;;0.77;;
12433;SDS011;6281;49.038;8.372;2022-07-10T09:22:12;2.50;;;0.80;;
12433;SDS011;6281;49.038;8.372;2022-07-10T09:24:40;1.50;;;0.70;;
12433;SDS011;6281;49.038;8.372;2022-07-10T09:27:08;3.07;;;0.97;;
12433;SDS011;6281;49.038;8.372;2022-07-10T09:29:44;0.97;;;0.43;;
12433;SDS011;6281;49.038;8.372;2022-07-10T09:32:14;2.27;;;0.70;;
12433;SDS011;6281;49.038;8.372;2022-07-10T09:34:42;2.97;;;1.13;;
12433;SDS011;6281;49.038;8.372;2022-07-10T09:37:23;3.67;;;1.40;;
12433;SDS011;6281;49.038;8.372;2022-07-10T09:39:55;1.23;;;0.60;;
12433;SDS011;6281;49.038;8.372;2022-07-10T09:45:15;4.30;;;0.90;;
12433;SDS011;6281;49.038;8.372;2022-07-10T09:47:46;2.00;;;0.80;;
12433;SDS011;6281;49.038;8.372;2022-07-10T09:50:21;1.10;;;0.70;;
12433;SDS011;6281;49.038;8.372;2022-07-10T09:52:50;1.47;;;0.60;;
12433;SDS011;6281;49.038;8.372;2022-07-10T09:55:18;1.87;;;0.73;;
12433;SDS011;6281;49.038;8.372;2022-07-10T09:57:48;1.97;;;0.97;;
12433;SDS011;6281;49.038;8.372;2022-07-10T10:00:22;1.50;;;0.80;;
12433;SDS011;6281;49.038;8.372;2022-07-10T10:02:53;2.13;;;0.70;;
12433;SDS011;6281;49.038;8.372;2022-07-10T10:05:22;3.47;;;0.77;;
12433;SDS011;6281;49.038;8.372;2022-07-10T10:07:57;1.40;;;0.80;;
12433;SDS011;6281;49.038;8.372;2022-07-10T10:10:27;2.50;;;0.70;;
12433;SDS011;6281;49.038;8.372;2022-07-10T10:12:56;2.00;;;0.87;;
12433;SDS011;6281;49.038;8.372;2022-07-10T10:15:28;1.30;;;0.50;;
12433;SDS011;6281;49.038;8.372;2022-07-10T10:17:57;1.83;;;0.90;;
12433;SDS011;6281;49.038;8.372;2022-07-10T10:20:26;2.00;;;0.57;;
12433;SDS011;6281;49.038;8.372;2022-07-10T10:23:03;4.43;;;0.80;;
12433;SDS011;6281;49.038;8.372;2022-07-10T10:25:31;2.53;;;0.80;;
12433;SDS011;6281;49.038;8.372;2022-07-10T10:27:59;2.00;;;0.67;;
12433;SDS011;6281;49.038;8.372;2022-07-10T10:30:28;1.90;;;0.70;;
12433;SDS011;6281;49.038;8.372;2022-07-10T10:32:57;3.77;;;0.90;;
12433;SDS011;6281;49.038;8.372;2022-07-10T10:38:12;2.00;;;0.70;;
12433;SDS011;6281;49.038;8.372;2022-07-10T10:40:39;2.93;;;0.73;;
12433;SDS011;6281;49.038;8.372;2022-07-10T10:43:15;1.77;;;0.70;;
12433;SDS011;6281;49.038;8.372;2022-07-10T10:45:46;3.13;;;1.00;;
12433;SDS011;6281;49.038;8.372;2022-07-10T10:48:14;1.67;;;0.70;;
12433;SDS011;6281;49.038;8.372;2022-07-10T10:50:45;2.30;;;0.83;;
12433;SDS011;6281;49.038;8.372;2022-07-10T10:53:13;4.60;;;1.00;;
12433;SDS011;6281;49.038;8.372;2022-07-10T10:58:42;1.67;;;0.50;;
12433;SDS011;6281;49.038;8.372;2022-07-10T11:01:23;1.70;;;0.80;;
12433;SDS011;6281;49.038;8.372;2022-07-10T11:06:44;3.80;;;0.88;;
12433;SDS011;6281;49.038;8.372;2022-07-10T11:09:22;2.33;;;0.80;;
12433;SDS011;6281;49.038;8.372;2022-07-10T11:11:57;3.10;;;1.33;;
12433;SDS011;6281;49.038;8.372;2022-07-10T11:14:25;4.72;;;1.00;;
12433;SDS011;6281;49.038;8.372;2022-07-10T11:16:53;1.30;;;0.60;;
12433;SDS011;6281;49.038;8.372;2022-07-10T11:19:22;2.53;;;0.85;;
12433;SDS011;6281;49.038;8.372;2022-07-10T11:21:53;3.78;;;0.80;;
12433;SDS011;6281;49.038;8.372;2022-07-10T11:24:33;2.42;;;0.73;;
12433;SDS011;6281;49.038;8.372;2022-07-10T11:27:15;2.63;;;0.82;;
12433;SDS011;6281;49.038;8.372;2022-07-10T11:29:58;2.03;;;0.65;;
12433;SDS011;6281;49.038;8.372;2022-07-10T11:32:25;2.08;;;0.63;;
12433;SDS011;6281;49.038;8.372;2022-07-10T11:34:55;2.42;;;0.80;;
12433;SDS011;6281;49.038;8.372;2022-07-10T11:37:22;1.27;;;0.60;;
12433;SDS011;6281;49.038;8.372;2022-07-10T11:39:53;1.40;;;0.80;;
12433;SDS011;6281;49.038;8.372;2022-07-10T11:42:46;1.27;;;0.60;;
12433;SDS011;6281;49.038;8.372;2022-07-10T11:45:21;2.60;;;0.60;;
12433;SDS011;6281;49.038;8.372;2022-07-10T11:47:55;5.13;;;0.80;;
12433;SDS011;6281;49.038;8.372;2022-07-10T11:50:23;2.67;;;0.70;;
12433;SDS011;6281;49.038;8.372;2022-07-10T11:52:51;1.35;;;0.77;;
12433;SDS011;6281;49.038;8.372;2022-07-10T11:55:20;3.20;;;0.95;;
12433;SDS011;6281;49.038;8.372;2022-07-10T11:57:48;5.32;;;0.80;;
12433;SDS011;6281;49.038;8.372;2022-07-10T12:00:22;2.15;;;0.85;;
12433;SDS011;6281;49.038;8.372;2022-07-10T12:02:50;1.25;;;0.70;;
12433;SDS011;6281;49.038;8.372;2022-07-10T12:05:35;3.83;;;1.00;;
12433;SDS011;6281;49.038;8.372;2022-07-10T12:08:04;1.65;;;0.65;;
12433;SDS011;6281;49.038;8.372;2022-07-10T12:10:31;0.75;;;0.60;;
12433;SDS011;6281;49.038;8.372;2022-07-10T12:13:03;0.80;;;0.50;;
12433;SDS011;6281;49.038;8.372;2022-07-10T12:15:31;2.53;;;0.77;;
12433;SDS011;6281;49.038;8.372;2022-07-10T12:18:03;5.75;;;0.90;;
12433;SDS011;6281;49.038;8.372;2022-07-10T12:20:31;1.98;;;0.65;;
12433;SDS011;6281;49.038;8.372;2022-07-10T12:23:00;2.47;;;0.65;;
12433;SDS011;6281;49.038;8.372;2022-07-10T12:25:27;2.08;;;0.77;;
12433;SDS011;6281;49.038;8.372;2022-07-10T12:27:55;2.90;;;0.77;;
12433;SDS011;6281;49.038;8.372;2022-07-10T12:30:23;1.50;;;0.70;;
12433;SDS011;6281;49.038;8.372;2022-07-10T12:33:05;2.72;;;0.73;;
12433;SDS011;6281;49.038;8.372;2022-07-10T12:35:45;2.80;;;0.60;;
12433;SDS011;6281;49.038;8.372;2022-07-10T12:38:14;2.05;;;0.65;;
12433;SDS011;6281;49.038;8.372;2022-07-10T12:40:42;1.40;;;0.70;;
12433;SDS011;6281;49.038;8.372;2022-07-10T12:43:10;2.78;;;0.95;;
12433;SDS011;6281;49.038;8.372;2022-07-10T12:45:37;2.75;;;0.70;;
12433;SDS011;6281;49.038;8.372;2022-07-10T12:48:04;2.70;;;0.60;;
12433;SDS011;6281;49.038;8.372;2022-07-10T12:50:32;3.42;;;0.60;;
12433;SDS011;6281;49.038;8.372;2022-07-10T12:53:10;4.00;;;0.90;;
12433;SDS011;6281;49.038;8.372;2022-07-10T12:55:38;1.38;;;0.60;;
12433;SDS011;6281;49.038;8.372;2022-07-10T12:58:07;4.43;;;1.17;;
12433;SDS011;6281;49.038;8.372;2022-07-10T13:00:42;3.08;;;0.70;;
12433;SDS011;6281;49.038;8.372;2022-07-10T13:03:16;1.95;;;0.73;;
12433;SDS011;6281;49.038;8.372;2022-07-10T13:05:44;3.67;;;0.90;;
12433;SDS011;6281;49.038;8.372;2022-07-10T13:08:14;1.75;;;0.70;;
12433;SDS011;6281;49.038;8.372;2022-07-10T13:10:45;2.72;;;0.80;;
12433;SDS011;6281;49.038;8.372;2022-07-10T13:13:15;2.95;;;1.00;;
12433;SDS011;6281;49.038;8.372;2022-07-10T13:15:42;3.45;;;0.80;;
12433;SDS011;6281;49.038;8.372;2022-07-10T13:18:14;2.83;;;0.90;;
12433;SDS011;6281;49.038;8.372;2022-07-10T13:20:42;1.90;;;0.80;;
12433;SDS011;6281;49.038;8.372;2022-07-10T13:23:10;2.63;;;1.00;;
12433;SDS011;6281;49.038;8.372;2022-07-10T13:25:39;2.45;;;0.80;;
12433;SDS011;6281;49.038;8.372;2022-07-10T13:28:06;2.00;;;0.70;;
12433;SDS011;6281;49.038;8.372;2022-07-10T13:30:34;1.10;;;0.75;;
12433;SDS011;6281;49.038;8.372;2022-07-10T13:33:01;4.10;;;1.15;;
12433;SDS011;6281;49.038;8.372;2022-07-10T13:35:29;3.70;;;1.23;;
12433;SDS011;6281;49.038;8.372;2022-07-10T13:37:57;1.90;;;0.88;;
12433;SDS011;6281;49.038;8.372;2022-07-10T13:40:26;2.38;;;1.00;;
12433;SDS011;6281;49.038;8.372;2022-07-10T13:42:54;1.85;;;0.90;;
12433;SDS011;6281;49.038;8.372;2022-07-10T13:45:21;2.08;;;0.90;;
12433;SDS011;6281;49.038;8.372;2022-07-10T13:47:50;3.45;;;1.17;;
12433;SDS011;6281;49.038;8.372;2022-07-10T13:50:18;3.05;;;0.95;;
12433;SDS011;6281;49.038;8.372;2022-07-10T13:52:45;3.05;;;0.93;;
12433;SDS011;6281;49.038;8.372;2022-07-10T13:55:12;1.90;;;0.80;;
12433;SDS011;6281;49.038;8.372;2022-07-10T13:57:39;3.08;;;1.10;;
12433;SDS011;6281;49.038;8.372;2022-07-10T14:00:08;2.28;;;1.10;;
12433;SDS011;6281;49.038;8.372;2022-07-10T14:02:36;2.10;;;1.00;;
12433;SDS011;6281;49.038;8.372;2022-07-10T14:05:03;1.58;;;0.90;;
12433;SDS011;6281;49.038;8.372;2022-07-10T14:07:33;1.88;;;0.88;;
12433;SDS011;6281;49.038;8.372;2022-07-10T14:09:59;1.65;;;0.93;;
12433;SDS011;6281;49.038;8.372;2022-07-10T14:12:27;1.95;;;1.00;;
12433;SDS011;6281;49.038;8.372;2022-07-10T14:14:54;1.15;;;1.00;;
12433;SDS011;6281;49.038;8.372;2022-07-10T14:17:23;1.55;;;1.00;;
12433;SDS011;6281;49.038;8.372;2022-07-10T14:19:50;2.63;;;1.13;;
12433;SDS011;6281;49.038;8.372;2022-07-10T14:22:17;3.20;;;1.10;;
12433;SDS011;6281;49.038;8.372;2022-07-10T14:24:44;3.40;;;1.15;;
12433;SDS011;6281;49.038;8.372;2022-07-10T14:27:11;2.55;;;0.93;;
12433;SDS011;6281;49.038;8.372;2022-07-10T14:29:38;4.30;;;1.05;;
12433;SDS011;6281;49.038;8.372;2022-07-10T14:32:05;2.15;;;1.27;;
12433;SDS011;6281;49.038;8.372;2022-07-10T14:34:34;2.25;;;1.10;;
12433;SDS011;6281;49.038;8.372;2022-07-10T14:37:01;3.78;;;1.00;;
12433;SDS011;6281;49.038;8.372;2022-07-10T14:39:28;1.10;;;0.80;;
12433;SDS011;6281;49.038;8.372;2022-07-10T14:41:55;4.18;;;1.23;;
12433;SDS011;6281;49.038;8.372;2022-07-10T14:44:22;3.50;;;1.23;;
12433;SDS011;6281;49.038;8.372;2022-07-10T14:46:49;1.45;;;0.80;;
12433;SDS011;6281;49.038;8.372;2022-07-10T14:49:16;3.38;;;1.17;;
12433;SDS011;6281;49.038;8.372;2022-07-10T14:51:45;2.33;;;1.38;;
12433;SDS011;6281;49.038;8.372;2022-07-10T14:54:11;3.50;;;1.10;;
12433;SDS011;6281;49.038;8.372;2022-07-10T14:56:38;1.85;;;0.95;;
12433;SDS011;6281;49.038;8.372;2022-07-10T14:59:06;1.98;;;1.00;;
12433;SDS011;6281;49.038;8.372;2022-07-10T15:01:33;3.67;;;1.15;;
12433;SDS011;6281;49.038;8.372;2022-07-10T15:04:00;4.47;;;1.00;;
12433;SDS011;6281;49.038;8.372;2022-07-10T15:06:26;4.32;;;1.02;;
12433;SDS011;6281;49.038;8.372;2022-07-10T15:08:55;2.55;;;0.88;;
12433;SDS011;6281;49.038;8.372;2022-07-10T15:11:23;3.22;;;1.00;;
12433;SDS011;6281;49.038;8.372;2022-07-10T15:13:51;2.90;;;1.17;;
12433;SDS011;6281;49.038;8.372;2022-07-10T15:19:13;3.10;;;1.15;;
12433;SDS011;6281;49.038;8.372;2022-07-10T15:21:40;2.28;;;1.10;;
12433;SDS011;6281;49.038;8.372;2022-07-10T15:24:08;2.90;;;1.30;;